Kindersley Airport, Saskatchewan

Past 24 Hour Conditions

Date / Time
(CST)
Conditions Temp
(°F)
Humidity
(%)
Dew Point
(°F)
Wind
(mph)
Pressure
(inches)
Visibility
(miles)
05 July 2015
20:00 Cloudy 58 70 49 NNW 8 30.2 15
19:00 Mostly Cloudy 59 71 50 N 8 30.2 15
18:00 Mostly Cloudy 60 68 50 NNW 12 30.2 15
17:00 Mostly Cloudy 61 65 49 NW 15 30.1 15
16:00 Cloudy 62 59 48 NNW 9 30.1 15
15:00 Cloudy 62 63 49 NNW 11 30.1 12
14:00 Cloudy 62 61 49 NNW 11 30.1 15
13:00 Mostly Cloudy 61 64 49 NNW 11 gust 18 30.1 15
12:00 Mostly Cloudy 60 70 51 NW 15 30.1 15
11:00 Mostly Cloudy 59 71 50 NW 14 30.1 15
10:00 Mostly Cloudy 57 81 51 NW 14 gust 22 30.1 15
9:00 Mostly Cloudy 57 79 51 NW 11 gust 20 30.1 15
8:00 Mostly Cloudy 56 82 50 NW 13 30.1 15
7:00 Partly Cloudy 52 89 49 NW 9 30.1 15
6:00 Mainly Sunny 50   92 48 NW 11 30.0 15
5:00 Mainly Clear 50   91 47 NW 9 30.0 15
4:00 Mainly Clear 51 91 48 NW 5 30.0 15
3:00 Cloudy 53 90 50 W 10 30.0 14
2:00 Cloudy 55 86 51 WNW 8 30.0 15
1:00 Cloudy 55 86 51 W 9 30.0 15
00:00 Light Rainshower 57 83 51 WNW 8 30.0 15
04 July 2015
23:00 Light Rainshower 56 92 54 SW 3 30.0 12
22:00 Cloudy 59 74 50 NW 12 30.0 12
21:00 Cloudy 62 59 48 NNW 23 gust 31 29.9 8
20:00 Smoke 67   59 52 N 12 29.9 1
N/A Not available
↑ Highest temperature
↓ Lowest temperature

If you require additional historical weather information, please visit Climate Data Online.

What we are doing

Date modified: